sensor_id;sensor_type;location;lat;lon;timestamp;temperature;humidity
16160;DHT22;8185;57.818;15.224;2023-10-09T00:00:12;2.70;99.90
16160;DHT22;8185;57.818;15.224;2023-10-09T00:03:12;2.70;99.90
16160;DHT22;8185;57.818;15.224;2023-10-09T00:05:40;2.80;99.90
16160;DHT22;8185;57.818;15.224;2023-10-09T00:08:12;2.70;99.90
16160;DHT22;8185;57.818;15.224;2023-10-09T00:10:44;2.70;99.90
16160;DHT22;8185;57.818;15.224;2023-10-09T00:13:20;2.60;99.90
16160;DHT22;8185;57.818;15.224;2023-10-09T00:15:54;2.70;99.90
16160;DHT22;8185;57.818;15.224;2023-10-09T00:18:26;2.80;99.90
16160;DHT22;8185;57.818;15.224;2023-10-09T00:20:56;2.70;99.90
16160;DHT22;8185;57.818;15.224;2023-10-09T00:23:27;2.70;99.90
16160;DHT22;8185;57.818;15.224;2023-10-09T00:25:59;2.60;99.90
16160;DHT22;8185;57.818;15.224;2023-10-09T00:28:36;2.70;99.90
16160;DHT22;8185;57.818;15.224;2023-10-09T00:31:07;2.60;99.90
16160;DHT22;8185;57.818;15.224;2023-10-09T00:33:40;2.70;99.90
16160;DHT22;8185;57.818;15.224;2023-10-09T00:36:08;2.70;99.90
16160;DHT22;8185;57.818;15.224;2023-10-09T00:38:36;2.70;99.90
16160;DHT22;8185;57.818;15.224;2023-10-09T00:41:13;2.70;99.90
16160;DHT22;8185;57.818;15.224;2023-10-09T00:43:46;2.70;99.90
16160;DHT22;8185;57.818;15.224;2023-10-09T00:46:17;2.60;99.90
16160;DHT22;8185;57.818;15.224;2023-10-09T00:48:53;2.50;99.90
16160;DHT22;8185;57.818;15.224;2023-10-09T00:51:22;2.50;99.90
16160;DHT22;8185;57.818;15.224;2023-10-09T00:53:52;2.50;99.90
16160;DHT22;8185;57.818;15.224;2023-10-09T00:56:22;2.40;99.90
16160;DHT22;8185;57.818;15.224;2023-10-09T00:59:04;2.40;99.90
16160;DHT22;8185;57.818;15.224;2023-10-09T01:01:35;2.40;99.90
16160;DHT22;8185;57.818;15.224;2023-10-09T01:04:03;2.40;99.90
16160;DHT22;8185;57.818;15.224;2023-10-09T01:06:37;2.40;99.90
16160;DHT22;8185;57.818;15.224;2023-10-09T01:09:10;2.40;99.90
16160;DHT22;8185;57.818;15.224;2023-10-09T01:11:41;2.50;99.90
16160;DHT22;8185;57.818;15.224;2023-10-09T01:14:29;2.50;99.90
16160;DHT22;8185;57.818;15.224;2023-10-09T01:17:02;2.50;99.90
16160;DHT22;8185;57.818;15.224;2023-10-09T01:19:32;2.60;99.90
16160;DHT22;8185;57.818;15.224;2023-10-09T01:22:00;2.60;99.90
16160;DHT22;8185;57.818;15.224;2023-10-09T01:24:32;2.70;99.90
16160;DHT22;8185;57.818;15.224;2023-10-09T01:27:05;2.70;99.90
16160;DHT22;8185;57.818;15.224;2023-10-09T01:29:39;2.70;99.90
16160;DHT22;8185;57.818;15.224;2023-10-09T01:32:07;2.70;99.90
16160;DHT22;8185;57.818;15.224;2023-10-09T01:34:42;2.80;99.90
16160;DHT22;8185;57.818;15.224;2023-10-09T01:37:16;2.70;99.90
16160;DHT22;8185;57.818;15.224;2023-10-09T01:39:46;2.70;99.90
16160;DHT22;8185;57.818;15.224;2023-10-09T01:42:14;2.50;99.90
16160;DHT22;8185;57.818;15.224;2023-10-09T01:44:50;2.50;99.90
16160;DHT22;8185;57.818;15.224;2023-10-09T01:47:18;2.40;99.90
16160;DHT22;8185;57.818;15.224;2023-10-09T01:49:47;2.30;99.90
16160;DHT22;8185;57.818;15.224;2023-10-09T01:52:18;2.30;99.90
16160;DHT22;8185;57.818;15.224;2023-10-09T01:54:51;2.20;99.90
16160;DHT22;8185;57.818;15.224;2023-10-09T01:57:20;2.20;99.90
16160;DHT22;8185;57.818;15.224;2023-10-09T01:59:50;2.10;99.90
16160;DHT22;8185;57.818;15.224;2023-10-09T02:02:19;2.10;99.90
16160;DHT22;8185;57.818;15.224;2023-10-09T02:04:58;2.10;99.90
16160;DHT22;8185;57.818;15.224;2023-10-09T02:07:35;2.10;99.90
16160;DHT22;8185;57.818;15.224;2023-10-09T02:10:12;2.00;99.90
16160;DHT22;8185;57.818;15.224;2023-10-09T02:12:51;2.00;99.90
16160;DHT22;8185;57.818;15.224;2023-10-09T02:15:23;2.10;99.90
16160;DHT22;8185;57.818;15.224;2023-10-09T02:18:04;2.10;99.90
16160;DHT22;8185;57.818;15.224;2023-10-09T02:20:42;2.10;99.90
16160;DHT22;8185;57.818;15.224;2023-10-09T02:23:11;2.20;99.90
16160;DHT22;8185;57.818;15.224;2023-10-09T02:25:42;2.10;99.90
16160;DHT22;8185;57.818;15.224;2023-10-09T02:28:10;2.10;99.90
16160;DHT22;8185;57.818;15.224;2023-10-09T02:30:44;2.00;99.90
16160;DHT22;8185;57.818;15.224;2023-10-09T02:33:14;2.00;99.90
16160;DHT22;8185;57.818;15.224;2023-10-09T02:35:46;2.00;99.90
16160;DHT22;8185;57.818;15.224;2023-10-09T02:38:17;1.90;99.90
16160;DHT22;8185;57.818;15.224;2023-10-09T02:40:50;1.80;99.90
16160;DHT22;8185;57.818;15.224;2023-10-09T02:43:44;1.70;99.90
16160;DHT22;8185;57.818;15.224;2023-10-09T02:46:14;1.60;99.90
16160;DHT22;8185;57.818;15.224;2023-10-09T02:48:43;1.50;99.90
16160;DHT22;8185;57.818;15.224;2023-10-09T02:51:13;1.50;99.90
16160;DHT22;8185;57.818;15.224;2023-10-09T02:53:47;1.50;99.90
16160;DHT22;8185;57.818;15.224;2023-10-09T02:56:17;1.40;99.90
16160;DHT22;8185;57.818;15.224;2023-10-09T02:58:50;1.40;99.90
16160;DHT22;8185;57.818;15.224;2023-10-09T03:01:17;1.30;99.90
16160;DHT22;8185;57.818;15.224;2023-10-09T03:03:45;1.20;99.90
16160;DHT22;8185;57.818;15.224;2023-10-09T03:06:13;1.20;99.90
16160;DHT22;8185;57.818;15.224;2023-10-09T03:08:50;1.20;99.90
16160;DHT22;8185;57.818;15.224;2023-10-09T03:11:22;1.20;99.90
16160;DHT22;8185;57.818;15.224;2023-10-09T03:13:50;1.20;99.90
16160;DHT22;8185;57.818;15.224;2023-10-09T03:16:19;1.20;99.90
16160;DHT22;8185;57.818;15.224;2023-10-09T03:18:47;1.30;99.90
16160;DHT22;8185;57.818;15.224;2023-10-09T03:21:16;1.40;99.90
16160;DHT22;8185;57.818;15.224;2023-10-09T03:23:45;1.40;99.90
16160;DHT22;8185;57.818;15.224;2023-10-09T03:26:16;1.60;99.90
16160;DHT22;8185;57.818;15.224;2023-10-09T03:28:47;1.70;99.90
16160;DHT22;8185;57.818;15.224;2023-10-09T03:31:14;1.70;99.90
16160;DHT22;8185;57.818;15.224;2023-10-09T03:33:42;1.80;99.90
16160;DHT22;8185;57.818;15.224;2023-10-09T03:36:09;1.80;99.90
16160;DHT22;8185;57.818;15.224;2023-10-09T03:38:37;1.90;99.90
16160;DHT22;8185;57.818;15.224;2023-10-09T03:41:05;2.00;99.90
16160;DHT22;8185;57.818;15.224;2023-10-09T03:43:33;2.00;99.90
16160;DHT22;8185;57.818;15.224;2023-10-09T03:46:07;2.00;99.90
16160;DHT22;8185;57.818;15.224;2023-10-09T03:48:46;2.00;99.90
16160;DHT22;8185;57.818;15.224;2023-10-09T03:51:14;2.00;99.90
16160;DHT22;8185;57.818;15.224;2023-10-09T03:53:47;2.10;99.90
16160;DHT22;8185;57.818;15.224;2023-10-09T03:56:15;2.10;99.90
16160;DHT22;8185;57.818;15.224;2023-10-09T03:58:44;2.10;99.90
16160;DHT22;8185;57.818;15.224;2023-10-09T04:01:14;2.10;99.90
16160;DHT22;8185;57.818;15.224;2023-10-09T04:03:49;2.10;99.90
16160;DHT22;8185;57.818;15.224;2023-10-09T04:06:21;2.10;99.90
16160;DHT22;8185;57.818;15.224;2023-10-09T04:08:48;2.10;99.90
16160;DHT22;8185;57.818;15.224;2023-10-09T04:11:17;2.00;99.90
16160;DHT22;8185;57.818;15.224;2023-10-09T04:13:49;1.90;99.90
16160;DHT22;8185;57.818;15.224;2023-10-09T04:16:19;1.90;99.90
16160;DHT22;8185;57.818;15.224;2023-10-09T04:19:10;1.80;99.90
16160;DHT22;8185;57.818;15.224;2023-10-09T04:21:38;1.80;99.90
16160;DHT22;8185;57.818;15.224;2023-10-09T04:24:05;1.80;99.90
16160;DHT22;8185;57.818;15.224;2023-10-09T04:26:51;1.80;99.90
16160;DHT22;8185;57.818;15.224;2023-10-09T04:29:28;1.70;99.90
16160;DHT22;8185;57.818;15.224;2023-10-09T04:32:06;1.70;99.90
16160;DHT22;8185;57.818;15.224;2023-10-09T04:34:42;1.50;99.90
16160;DHT22;8185;57.818;15.224;2023-10-09T04:37:14;1.50;99.90
16160;DHT22;8185;57.818;15.224;2023-10-09T04:39:50;1.50;99.90
16160;DHT22;8185;57.818;15.224;2023-10-09T04:42:27;1.50;99.90
16160;DHT22;8185;57.818;15.224;2023-10-09T04:45:04;1.40;99.90
16160;DHT22;8185;57.818;15.224;2023-10-09T04:48:14;1.40;99.90
16160;DHT22;8185;57.818;15.224;2023-10-09T04:50:58;1.20;99.90
16160;DHT22;8185;57.818;15.224;2023-10-09T04:53:46;1.10;99.90
16160;DHT22;8185;57.818;15.224;2023-10-09T04:56:21;0.90;99.90
16160;DHT22;8185;57.818;15.224;2023-10-09T04:58:50;0.80;99.90
16160;DHT22;8185;57.818;15.224;2023-10-09T05:01:29;0.80;99.90
16160;DHT22;8185;57.818;15.224;2023-10-09T05:04:11;0.80;99.90
16160;DHT22;8185;57.818;15.224;2023-10-09T05:06:56;0.80;99.90
16160;DHT22;8185;57.818;15.224;2023-10-09T05:09:23;0.70;99.90
16160;DHT22;8185;57.818;15.224;2023-10-09T05:11:50;0.60;99.90
16160;DHT22;8185;57.818;15.224;2023-10-09T05:14:26;0.60;99.90
16160;DHT22;8185;57.818;15.224;2023-10-09T05:17:06;0.60;99.90
16160;DHT22;8185;57.818;15.224;2023-10-09T05:19:43;0.60;99.90
16160;DHT22;8185;57.818;15.224;2023-10-09T05:22:21;0.60;99.90
16160;DHT22;8185;57.818;15.224;2023-10-09T05:25:02;0.60;99.90
16160;DHT22;8185;57.818;15.224;2023-10-09T05:27:42;0.80;99.90
16160;DHT22;8185;57.818;15.224;2023-10-09T05:30:11;0.80;99.90
16160;DHT22;8185;57.818;15.224;2023-10-09T05:32:59;0.80;99.90
16160;DHT22;8185;57.818;15.224;2023-10-09T05:35:42;0.80;99.90
16160;DHT22;8185;57.818;15.224;2023-10-09T05:38:29;0.70;99.90
16160;DHT22;8185;57.818;15.224;2023-10-09T05:40:57;0.70;99.90
16160;DHT22;8185;57.818;15.224;2023-10-09T05:43:45;0.70;99.90
16160;DHT22;8185;57.818;15.224;2023-10-09T05:46:29;0.60;99.90
16160;DHT22;8185;57.818;15.224;2023-10-09T05:49:03;0.60;99.90
16160;DHT22;8185;57.818;15.224;2023-10-09T05:51:37;0.70;99.90
16160;DHT22;8185;57.818;15.224;2023-10-09T05:54:13;0.80;99.90
16160;DHT22;8185;57.818;15.224;2023-10-09T05:56:57;0.90;99.90
16160;DHT22;8185;57.818;15.224;2023-10-09T05:59:41;1.10;99.90
16160;DHT22;8185;57.818;15.224;2023-10-09T06:02:31;1.40;99.90
16160;DHT22;8185;57.818;15.224;2023-10-09T06:05:19;1.60;99.90
16160;DHT22;8185;57.818;15.224;2023-10-09T06:08:02;1.80;99.90
16160;DHT22;8185;57.818;15.224;2023-10-09T06:10:34;1.90;99.90
16160;DHT22;8185;57.818;15.224;2023-10-09T06:13:08;2.00;99.90
16160;DHT22;8185;57.818;15.224;2023-10-09T06:16:02;2.00;99.90
16160;DHT22;8185;57.818;15.224;2023-10-09T06:19:00;1.90;99.90
16160;DHT22;8185;57.818;15.224;2023-10-09T06:21:52;1.90;99.90
16160;DHT22;8185;57.818;15.224;2023-10-09T06:24:41;2.00;99.90
16160;DHT22;8185;57.818;15.224;2023-10-09T06:27:08;2.00;99.90
16160;DHT22;8185;57.818;15.224;2023-10-09T06:29:40;2.10;99.90
16160;DHT22;8185;57.818;15.224;2023-10-09T06:32:37;2.20;99.90
16160;DHT22;8185;57.818;15.224;2023-10-09T06:35:05;2.30;99.90
16160;DHT22;8185;57.818;15.224;2023-10-09T06:37:48;2.50;99.90
16160;DHT22;8185;57.818;15.224;2023-10-09T06:40:36;2.60;99.90
16160;DHT22;8185;57.818;15.224;2023-10-09T06:43:21;2.70;99.90
16160;DHT22;8185;57.818;15.224;2023-10-09T06:45:56;2.80;99.90
16160;DHT22;8185;57.818;15.224;2023-10-09T06:48:45;2.90;99.90
16160;DHT22;8185;57.818;15.224;2023-10-09T06:51:12;3.00;99.90
16160;DHT22;8185;57.818;15.224;2023-10-09T06:53:41;3.00;99.90
16160;DHT22;8185;57.818;15.224;2023-10-09T06:56:33;3.00;99.90
16160;DHT22;8185;57.818;15.224;2023-10-09T06:59:18;3.20;99.90
16160;DHT22;8185;57.818;15.224;2023-10-09T07:01:50;3.30;99.90
16160;DHT22;8185;57.818;15.224;2023-10-09T07:04:31;3.30;99.90
16160;DHT22;8185;57.818;15.224;2023-10-09T07:07:12;3.40;99.90
16160;DHT22;8185;57.818;15.224;2023-10-09T07:09:42;3.50;99.90
16160;DHT22;8185;57.818;15.224;2023-10-09T07:12:32;3.60;99.90
16160;DHT22;8185;57.818;15.224;2023-10-09T07:15:00;3.80;99.90
16160;DHT22;8185;57.818;15.224;2023-10-09T07:17:44;4.00;99.90
16160;DHT22;8185;57.818;15.224;2023-10-09T07:20:12;4.20;99.90
16160;DHT22;8185;57.818;15.224;2023-10-09T07:23:02;4.30;99.90
16160;DHT22;8185;57.818;15.224;2023-10-09T07:25:43;4.50;99.90
16160;DHT22;8185;57.818;15.224;2023-10-09T07:28:24;4.50;99.90
16160;DHT22;8185;57.818;15.224;2023-10-09T07:31:16;4.50;99.90
16160;DHT22;8185;57.818;15.224;2023-10-09T07:33:53;4.60;99.90
16160;DHT22;8185;57.818;15.224;2023-10-09T07:36:34;4.80;99.90
16160;DHT22;8185;57.818;15.224;2023-10-09T07:39:04;4.90;99.90
16160;DHT22;8185;57.818;15.224;2023-10-09T07:41:41;5.10;99.90
16160;DHT22;8185;57.818;15.224;2023-10-09T07:44:24;5.10;99.90
16160;DHT22;8185;57.818;15.224;2023-10-09T07:47:08;5.20;99.90
16160;DHT22;8185;57.818;15.224;2023-10-09T07:49:45;5.30;99.90
16160;DHT22;8185;57.818;15.224;2023-10-09T07:52:20;5.40;99.90
16160;DHT22;8185;57.818;15.224;2023-10-09T07:54:52;5.50;99.90
16160;DHT22;8185;57.818;15.224;2023-10-09T07:57:29;5.60;99.90
16160;DHT22;8185;57.818;15.224;2023-10-09T08:00:07;5.60;99.90
16160;DHT22;8185;57.818;15.224;2023-10-09T08:02:54;5.70;99.90
16160;DHT22;8185;57.818;15.224;2023-10-09T08:05:26;5.90;99.90
16160;DHT22;8185;57.818;15.224;2023-10-09T08:08:00;6.10;99.90
16160;DHT22;8185;57.818;15.224;2023-10-09T08:10:55;6.20;99.90
16160;DHT22;8185;57.818;15.224;2023-10-09T08:13:39;6.50;99.90
16160;DHT22;8185;57.818;15.224;2023-10-09T08:16:27;6.70;99.90
16160;DHT22;8185;57.818;15.224;2023-10-09T08:19:04;6.90;99.90
16160;DHT22;8185;57.818;15.224;2023-10-09T08:21:56;7.00;99.90
16160;DHT22;8185;57.818;15.224;2023-10-09T08:24:43;7.10;99.90
16160;DHT22;8185;57.818;15.224;2023-10-09T08:27:18;7.10;99.90
16160;DHT22;8185;57.818;15.224;2023-10-09T08:30:05;7.10;99.90
16160;DHT22;8185;57.818;15.224;2023-10-09T08:32:55;7.10;99.90
16160;DHT22;8185;57.818;15.224;2023-10-09T08:35:29;7.10;99.90
16160;DHT22;8185;57.818;15.224;2023-10-09T08:37:57;7.00;99.90
16160;DHT22;8185;57.818;15.224;2023-10-09T08:40:32;6.90;99.90
16160;DHT22;8185;57.818;15.224;2023-10-09T08:43:13;6.80;99.90
16160;DHT22;8185;57.818;15.224;2023-10-09T08:45:45;6.80;99.90
16160;DHT22;8185;57.818;15.224;2023-10-09T08:48:15;6.70;99.90
16160;DHT22;8185;57.818;15.224;2023-10-09T08:50:44;6.80;99.90
16160;DHT22;8185;57.818;15.224;2023-10-09T08:53:12;6.90;99.90
16160;DHT22;8185;57.818;15.224;2023-10-09T08:55:40;7.00;99.90
16160;DHT22;8185;57.818;15.224;2023-10-09T08:58:08;7.20;99.90
16160;DHT22;8185;57.818;15.224;2023-10-09T09:00:44;7.30;99.90
16160;DHT22;8185;57.818;15.224;2023-10-09T09:03:14;7.40;99.90
16160;DHT22;8185;57.818;15.224;2023-10-09T09:05:45;7.50;99.90
16160;DHT22;8185;57.818;15.224;2023-10-09T09:08:22;7.60;99.90
16160;DHT22;8185;57.818;15.224;2023-10-09T09:10:58;7.60;99.90
16160;DHT22;8185;57.818;15.224;2023-10-09T09:13:39;7.70;99.90
16160;DHT22;8185;57.818;15.224;2023-10-09T09:16:14;7.70;99.90
16160;DHT22;8185;57.818;15.224;2023-10-09T09:19:02;7.80;99.90
16160;DHT22;8185;57.818;15.224;2023-10-09T09:21:32;7.80;99.90
16160;DHT22;8185;57.818;15.224;2023-10-09T09:24:07;7.90;99.90
16160;DHT22;8185;57.818;15.224;2023-10-09T09:26:54;8.00;99.90
16160;DHT22;8185;57.818;15.224;2023-10-09T09:29:40;8.20;99.90
16160;DHT22;8185;57.818;15.224;2023-10-09T09:32:13;8.40;99.90
16160;DHT22;8185;57.818;15.224;2023-10-09T09:34:46;8.30;99.90
16160;DHT22;8185;57.818;15.224;2023-10-09T09:37:19;8.30;99.90
16160;DHT22;8185;57.818;15.224;2023-10-09T09:39:47;8.40;99.90
16160;DHT22;8185;57.818;15.224;2023-10-09T09:42:17;8.40;99.90
16160;DHT22;8185;57.818;15.224;2023-10-09T09:44:51;8.40;99.90
16160;DHT22;8185;57.818;15.224;2023-10-09T09:47:19;8.70;99.90
16160;DHT22;8185;57.818;15.224;2023-10-09T09:49:54;9.10;99.90
16160;DHT22;8185;57.818;15.224;2023-10-09T09:52:28;9.00;99.90
16160;DHT22;8185;57.818;15.224;2023-10-09T09:55:06;9.30;99.90
16160;DHT22;8185;57.818;15.224;2023-10-09T09:57:41;9.50;99.90
16160;DHT22;8185;57.818;15.224;2023-10-09T10:00:13;9.50;99.90
16160;DHT22;8185;57.818;15.224;2023-10-09T10:02:59;10.40;99.90
16160;DHT22;8185;57.818;15.224;2023-10-09T10:05:30;11.20;99.90
16160;DHT22;8185;57.818;15.224;2023-10-09T10:07:58;11.50;99.90
16160;DHT22;8185;57.818;15.224;2023-10-09T10:10:36;12.10;99.90
16160;DHT22;8185;57.818;15.224;2023-10-09T10:13:16;13.00;99.90
16160;DHT22;8185;57.818;15.224;2023-10-09T10:16:06;12.70;99.90
16160;DHT22;8185;57.818;15.224;2023-10-09T10:18:56;12.40;99.90
16160;DHT22;8185;57.818;15.224;2023-10-09T10:21:34;11.40;99.90
16160;DHT22;8185;57.818;15.224;2023-10-09T10:24:40;11.60;99.90
16160;DHT22;8185;57.818;15.224;2023-10-09T10:27:21;12.00;99.90
16160;DHT22;8185;57.818;15.224;2023-10-09T10:30:29;11.80;99.90
16160;DHT22;8185;57.818;15.224;2023-10-09T10:33:03;11.40;99.90
16160;DHT22;8185;57.818;15.224;2023-10-09T10:35:41;11.50;99.90
16160;DHT22;8185;57.818;15.224;2023-10-09T10:38:29;12.00;99.90
16160;DHT22;8185;57.818;15.224;2023-10-09T10:41:13;12.50;99.90
16160;DHT22;8185;57.818;15.224;2023-10-09T10:43:43;12.10;99.90
16160;DHT22;8185;57.818;15.224;2023-10-09T10:46:25;12.00;99.90
16160;DHT22;8185;57.818;15.224;2023-10-09T10:49:05;12.00;99.90
16160;DHT22;8185;57.818;15.224;2023-10-09T10:51:42;12.20;99.90
16160;DHT22;8185;57.818;15.224;2023-10-09T10:54:22;11.50;99.90
16160;DHT22;8185;57.818;15.224;2023-10-09T10:57:17;11.00;99.90
16160;DHT22;8185;57.818;15.224;2023-10-09T10:59:56;10.50;99.90
16160;DHT22;8185;57.818;15.224;2023-10-09T11:02:59;10.10;99.90
16160;DHT22;8185;57.818;15.224;2023-10-09T11:05:41;9.80;99.90
16160;DHT22;8185;57.818;15.224;2023-10-09T11:08:11;9.50;99.90
16160;DHT22;8185;57.818;15.224;2023-10-09T11:10:40;9.40;99.90
16160;DHT22;8185;57.818;15.224;2023-10-09T11:13:22;9.30;99.90
16160;DHT22;8185;57.818;15.224;2023-10-09T11:16:01;9.40;99.90
16160;DHT22;8185;57.818;15.224;2023-10-09T11:18:54;9.30;99.90
16160;DHT22;8185;57.818;15.224;2023-10-09T11:21:30;9.50;99.90
16160;DHT22;8185;57.818;15.224;2023-10-09T11:24:08;9.50;99.90
16160;DHT22;8185;57.818;15.224;2023-10-09T11:26:54;9.70;99.90
16160;DHT22;8185;57.818;15.224;2023-10-09T11:29:23;9.70;99.90
16160;DHT22;8185;57.818;15.224;2023-10-09T11:32:02;9.80;99.90
16160;DHT22;8185;57.818;15.224;2023-10-09T11:34:31;9.80;99.90
16160;DHT22;8185;57.818;15.224;2023-10-09T11:36:59;9.70;99.90
16160;DHT22;8185;57.818;15.224;2023-10-09T11:39:29;9.70;99.90
16160;DHT22;8185;57.818;15.224;2023-10-09T11:42:14;9.80;99.90
16160;DHT22;8185;57.818;15.224;2023-10-09T11:45:01;10.10;99.90
16160;DHT22;8185;57.818;15.224;2023-10-09T11:47:34;10.40;99.90
16160;DHT22;8185;57.818;15.224;2023-10-09T11:50:01;10.50;99.90
16160;DHT22;8185;57.818;15.224;2023-10-09T11:52:58;10.10;99.90
16160;DHT22;8185;57.818;15.224;2023-10-09T11:55:59;9.90;99.90
16160;DHT22;8185;57.818;15.224;2023-10-09T11:58:27;10.00;99.90
16160;DHT22;8185;57.818;15.224;2023-10-09T12:00:55;9.90;99.90
16160;DHT22;8185;57.818;15.224;2023-10-09T12:03:25;9.60;99.90
16160;DHT22;8185;57.818;15.224;2023-10-09T12:05:59;9.60;99.90
16160;DHT22;8185;57.818;15.224;2023-10-09T12:08:31;9.70;99.90
16160;DHT22;8185;57.818;15.224;2023-10-09T12:10:58;9.90;99.90
16160;DHT22;8185;57.818;15.224;2023-10-09T12:13:30;10.40;99.90
16160;DHT22;8185;57.818;15.224;2023-10-09T12:15:57;10.80;99.90
16160;DHT22;8185;57.818;15.224;2023-10-09T12:18:25;10.90;99.90
16160;DHT22;8185;57.818;15.224;2023-10-09T12:20:54;10.80;99.90
16160;DHT22;8185;57.818;15.224;2023-10-09T12:23:28;10.60;99.90
16160;DHT22;8185;57.818;15.224;2023-10-09T12:26:00;10.60;99.90
16160;DHT22;8185;57.818;15.224;2023-10-09T12:28:29;10.50;99.90
16160;DHT22;8185;57.818;15.224;2023-10-09T12:30:59;10.30;99.90
16160;DHT22;8185;57.818;15.224;2023-10-09T12:33:29;10.30;99.90
16160;DHT22;8185;57.818;15.224;2023-10-09T12:35:57;10.40;99.90
16160;DHT22;8185;57.818;15.224;2023-10-09T12:38:26;10.30;99.90
16160;DHT22;8185;57.818;15.224;2023-10-09T12:41:02;10.20;99.90
16160;DHT22;8185;57.818;15.224;2023-10-09T12:43:35;10.30;99.90
16160;DHT22;8185;57.818;15.224;2023-10-09T12:46:07;10.30;99.90
16160;DHT22;8185;57.818;15.224;2023-10-09T12:48:34;10.30;99.90
16160;DHT22;8185;57.818;15.224;2023-10-09T12:51:03;10.30;99.90
16160;DHT22;8185;57.818;15.224;2023-10-09T12:53:32;10.20;99.90
16160;DHT22;8185;57.818;15.224;2023-10-09T12:56:00;10.20;99.90
16160;DHT22;8185;57.818;15.224;2023-10-09T12:58:27;10.20;99.90
16160;DHT22;8185;57.818;15.224;2023-10-09T13:00:56;10.20;99.90
16160;DHT22;8185;57.818;15.224;2023-10-09T13:03:29;10.20;99.90
16160;DHT22;8185;57.818;15.224;2023-10-09T13:05:58;10.20;99.90
16160;DHT22;8185;57.818;15.224;2023-10-09T13:08:29;10.30;99.90
16160;DHT22;8185;57.818;15.224;2023-10-09T13:11:03;10.30;99.90
16160;DHT22;8185;57.818;15.224;2023-10-09T13:36:14;10.40;99.90
16160;DHT22;8185;57.818;15.224;2023-10-09T13:38:53;10.80;99.90
16160;DHT22;8185;57.818;15.224;2023-10-09T13:41:21;11.00;99.90
16160;DHT22;8185;57.818;15.224;2023-10-09T13:43:51;10.90;99.90
16160;DHT22;8185;57.818;15.224;2023-10-09T13:46:19;10.90;99.90
16160;DHT22;8185;57.818;15.224;2023-10-09T13:48:46;10.80;99.90
16160;DHT22;8185;57.818;15.224;2023-10-09T13:51:16;10.90;99.90
16160;DHT22;8185;57.818;15.224;2023-10-09T13:53:50;10.90;99.90
16160;DHT22;8185;57.818;15.224;2023-10-09T13:56:18;11.20;99.90
16160;DHT22;8185;57.818;15.224;2023-10-09T13:58:47;11.50;99.90
16160;DHT22;8185;57.818;15.224;2023-10-09T14:01:16;11.50;99.90
16160;DHT22;8185;57.818;15.224;2023-10-09T14:03:58;11.60;99.90
16160;DHT22;8185;57.818;15.224;2023-10-09T14:06:28;11.90;99.90
16160;DHT22;8185;57.818;15.224;2023-10-09T14:08:59;12.20;99.90
16160;DHT22;8185;57.818;15.224;2023-10-09T14:11:29;12.70;99.90
16160;DHT22;8185;57.818;15.224;2023-10-09T14:13:56;13.60;99.90
16160;DHT22;8185;57.818;15.224;2023-10-09T14:16:26;14.20;99.90
16160;DHT22;8185;57.818;15.224;2023-10-09T14:18:55;14.90;99.90
16160;DHT22;8185;57.818;15.224;2023-10-09T14:21:24;14.60;99.90
16160;DHT22;8185;57.818;15.224;2023-10-09T14:23:56;14.00;99.90
16160;DHT22;8185;57.818;15.224;2023-10-09T14:26:27;14.10;99.90
16160;DHT22;8185;57.818;15.224;2023-10-09T14:28:56;13.70;99.90
16160;DHT22;8185;57.818;15.224;2023-10-09T14:31:24;12.80;99.90
16160;DHT22;8185;57.818;15.224;2023-10-09T14:33:56;12.50;99.90
16160;DHT22;8185;57.818;15.224;2023-10-09T14:36:24;12.20;99.90
16160;DHT22;8185;57.818;15.224;2023-10-09T14:39:01;11.50;99.90
16160;DHT22;8185;57.818;15.224;2023-10-09T14:41:30;11.20;99.90
16160;DHT22;8185;57.818;15.224;2023-10-09T14:43:59;11.10;99.90
16160;DHT22;8185;57.818;15.224;2023-10-09T14:46:26;11.00;99.90
16160;DHT22;8185;57.818;15.224;2023-10-09T14:48:54;10.90;99.90
16160;DHT22;8185;57.818;15.224;2023-10-09T14:51:22;10.80;99.90
16160;DHT22;8185;57.818;15.224;2023-10-09T14:53:54;10.50;99.90
16160;DHT22;8185;57.818;15.224;2023-10-09T14:56:26;10.50;99.90
16160;DHT22;8185;57.818;15.224;2023-10-09T14:58:56;10.30;99.90
16160;DHT22;8185;57.818;15.224;2023-10-09T15:01:25;10.30;99.90
16160;DHT22;8185;57.818;15.224;2023-10-09T15:03:56;10.20;99.90
16160;DHT22;8185;57.818;15.224;2023-10-09T15:06:26;10.10;99.90
16160;DHT22;8185;57.818;15.224;2023-10-09T15:08:56;9.90;99.90
16160;DHT22;8185;57.818;15.224;2023-10-09T15:11:27;9.80;99.90
16160;DHT22;8185;57.818;15.224;2023-10-09T15:13:56;9.60;99.90
16160;DHT22;8185;57.818;15.224;2023-10-09T15:16:25;9.70;99.90
16160;DHT22;8185;57.818;15.224;2023-10-09T15:18:56;9.70;99.90
16160;DHT22;8185;57.818;15.224;2023-10-09T15:21:24;9.50;99.90
16160;DHT22;8185;57.818;15.224;2023-10-09T15:23:54;9.30;99.90
16160;DHT22;8185;57.818;15.224;2023-10-09T15:26:22;9.00;99.90
16160;DHT22;8185;57.818;15.224;2023-10-09T15:28:53;8.80;99.90
16160;DHT22;8185;57.818;15.224;2023-10-09T15:31:20;8.60;99.90
16160;DHT22;8185;57.818;15.224;2023-10-09T15:33:48;8.50;99.90
16160;DHT22;8185;57.818;15.224;2023-10-09T15:36:17;8.30;99.90
16160;DHT22;8185;57.818;15.224;2023-10-09T15:38:46;8.30;99.90
16160;DHT22;8185;57.818;15.224;2023-10-09T15:41:15;8.30;99.90
16160;DHT22;8185;57.818;15.224;2023-10-09T15:43:43;8.50;99.90
16160;DHT22;8185;57.818;15.224;2023-10-09T15:46:13;8.70;99.90
16160;DHT22;8185;57.818;15.224;2023-10-09T15:48:41;8.90;99.90
16160;DHT22;8185;57.818;15.224;2023-10-09T15:51:11;8.70;99.90
16160;DHT22;8185;57.818;15.224;2023-10-09T15:53:41;8.60;99.90
16160;DHT22;8185;57.818;15.224;2023-10-09T15:56:09;8.50;99.90
16160;DHT22;8185;57.818;15.224;2023-10-09T15:58:38;8.40;99.90
16160;DHT22;8185;57.818;15.224;2023-10-09T16:01:09;8.30;99.90
16160;DHT22;8185;57.818;15.224;2023-10-09T16:03:41;7.90;99.90
16160;DHT22;8185;57.818;15.224;2023-10-09T16:06:09;7.70;99.90
16160;DHT22;8185;57.818;15.224;2023-10-09T16:08:38;7.40;99.90
16160;DHT22;8185;57.818;15.224;2023-10-09T16:11:06;7.30;99.90
16160;DHT22;8185;57.818;15.224;2023-10-09T16:13:34;7.00;99.90
16160;DHT22;8185;57.818;15.224;2023-10-09T16:16:04;6.80;99.90
16160;DHT22;8185;57.818;15.224;2023-10-09T16:18:34;6.60;99.90
16160;DHT22;8185;57.818;15.224;2023-10-09T16:21:03;6.40;99.90
16160;DHT22;8185;57.818;15.224;2023-10-09T16:23:31;6.40;99.90
16160;DHT22;8185;57.818;15.224;2023-10-09T16:25:59;6.20;99.90
16160;DHT22;8185;57.818;15.224;2023-10-09T16:28:27;6.00;99.90
16160;DHT22;8185;57.818;15.224;2023-10-09T16:30:54;5.80;99.90
16160;DHT22;8185;57.818;15.224;2023-10-09T16:33:23;5.70;99.90
16160;DHT22;8185;57.818;15.224;2023-10-09T16:35:51;5.60;99.90
16160;DHT22;8185;57.818;15.224;2023-10-09T16:38:22;5.60;99.90
16160;DHT22;8185;57.818;15.224;2023-10-09T16:40:55;5.50;99.90
16160;DHT22;8185;57.818;15.224;2023-10-09T16:43:25;5.50;99.90
16160;DHT22;8185;57.818;15.224;2023-10-09T16:45:53;5.50;99.90
16160;DHT22;8185;57.818;15.224;2023-10-09T16:48:24;5.40;99.90
16160;DHT22;8185;57.818;15.224;2023-10-09T16:50:57;5.30;99.90